createdAt,value
2023-04-06T00:01:23.317Z,2.75
2023-04-06T00:03:50.876Z,2.77
2023-04-06T00:06:18.339Z,2.74
2023-04-06T00:08:45.684Z,2.75
2023-04-06T00:11:13.112Z,2.73
2023-04-06T00:13:40.324Z,2.72
2023-04-06T00:16:07.898Z,2.66
2023-04-06T00:18:35.338Z,2.54
2023-04-06T00:21:04.733Z,2.53
2023-04-06T00:23:31.927Z,2.57
2023-04-06T00:25:59.379Z,2.55
2023-04-06T00:28:27.035Z,2.60
2023-04-06T00:30:56.291Z,2.68
2023-04-06T00:33:24.485Z,2.68
2023-04-06T00:35:52.302Z,2.68
2023-04-06T00:38:20.429Z,2.65
2023-04-06T00:40:47.891Z,2.69
2023-04-06T00:43:15.998Z,2.73
2023-04-06T00:45:43.850Z,2.74
2023-04-06T00:48:13.014Z,2.74
2023-04-06T00:50:40.535Z,2.75
2023-04-06T00:53:07.690Z,2.75
2023-04-06T00:55:36.925Z,2.75
2023-04-06T00:58:05.062Z,2.76
2023-04-06T01:00:42.640Z,2.74
2023-04-06T01:03:15.474Z,2.72
2023-04-06T01:05:45.219Z,2.71
2023-04-06T01:08:20.175Z,2.70
2023-04-06T01:10:47.936Z,2.71
2023-04-06T01:13:29.874Z,2.71
2023-04-06T01:16:02.379Z,2.70
2023-04-06T01:18:44.614Z,2.70
2023-04-06T01:21:17.325Z,2.70
2023-04-06T01:24:03.195Z,2.68
2023-04-06T01:26:41.666Z,2.68
2023-04-06T01:29:10.769Z,2.62
2023-04-06T01:31:39.204Z,2.62
2023-04-06T01:34:07.133Z,2.60
2023-04-06T01:36:34.838Z,2.59
2023-04-06T01:39:15.765Z,2.55
2023-04-06T01:41:43.572Z,2.54
2023-04-06T01:44:11.145Z,2.52
2023-04-06T01:46:38.647Z,2.49
2023-04-06T01:49:07.499Z,2.48
2023-04-06T01:51:37.388Z,2.43
2023-04-06T01:54:07.541Z,2.40
2023-04-06T01:56:53.564Z,2.41
2023-04-06T01:59:35.055Z,2.37
2023-04-06T02:02:08.548Z,2.35
2023-04-06T02:04:38.503Z,2.33
2023-04-06T02:07:10.989Z,2.29
2023-04-06T02:09:38.335Z,2.29
2023-04-06T02:12:10.369Z,2.27
2023-04-06T02:14:38.294Z,2.26
2023-04-06T02:17:06.100Z,2.23
2023-04-06T02:19:33.354Z,2.18
2023-04-06T02:22:01.281Z,2.16
2023-04-06T02:24:28.439Z,2.17
2023-04-06T02:26:56.009Z,2.14
2023-04-06T02:29:23.629Z,2.11
2023-04-06T02:31:52.745Z,2.08
2023-04-06T02:34:21.109Z,2.06
2023-04-06T02:36:51.828Z,2.04
2023-04-06T02:39:19.127Z,1.98
2023-04-06T02:41:47.141Z,1.99
2023-04-06T02:44:19.967Z,1.96
2023-04-06T02:46:48.332Z,1.94
2023-04-06T02:49:15.428Z,1.90
2023-04-06T02:51:43.136Z,1.89
2023-04-06T02:54:32.321Z,1.87
2023-04-06T02:57:00.900Z,1.84
2023-04-06T02:59:37.479Z,1.80
2023-04-06T03:02:28.674Z,1.80
2023-04-06T03:05:05.778Z,1.77
2023-04-06T03:07:39.012Z,1.74
2023-04-06T03:10:10.813Z,1.73
2023-04-06T03:12:38.446Z,1.69
2023-04-06T03:15:12.224Z,1.69
2023-04-06T03:17:43.887Z,1.66
2023-04-06T03:20:18.931Z,1.65
2023-04-06T03:22:46.473Z,1.61
2023-04-06T03:25:16.391Z,1.60
2023-04-06T03:27:45.923Z,1.59
2023-04-06T03:30:18.552Z,1.55
2023-04-06T03:32:46.089Z,1.56
2023-04-06T03:35:13.520Z,1.53
2023-04-06T03:37:41.072Z,1.50
2023-04-06T03:40:08.875Z,1.47
2023-04-06T03:42:36.466Z,1.42
2023-04-06T03:45:10.697Z,1.41
2023-04-06T03:47:45.109Z,1.37
2023-04-06T03:50:12.975Z,1.37
2023-04-06T03:52:41.352Z,1.36
2023-04-06T03:55:09.230Z,1.33
2023-04-06T03:57:38.551Z,1.31
2023-04-06T04:00:06.869Z,1.33
2023-04-06T04:02:40.851Z,1.29
2023-04-06T04:05:08.722Z,1.24
2023-04-06T04:07:37.999Z,1.24
2023-04-06T04:10:07.202Z,1.18
2023-04-06T04:12:34.639Z,1.18
2023-04-06T04:15:03.980Z,1.18
2023-04-06T04:17:31.919Z,1.18
2023-04-06T04:19:59.065Z,1.18
2023-04-06T04:22:26.439Z,1.20
2023-04-06T04:24:53.631Z,1.18
2023-04-06T04:27:21.737Z,1.16
2023-04-06T04:29:53.076Z,1.11
2023-04-06T04:32:21.610Z,1.12
2023-04-06T04:34:50.325Z,1.13
2023-04-06T04:37:31.681Z,1.15
2023-04-06T04:39:59.033Z,1.10
2023-04-06T04:42:26.473Z,1.10
2023-04-06T04:44:57.202Z,1.12
2023-04-06T04:47:43.046Z,1.09
2023-04-06T04:50:13.041Z,1.10
2023-04-06T04:52:44.238Z,1.08
2023-04-06T04:55:16.164Z,1.09
2023-04-06T04:57:47.675Z,1.11
2023-04-06T05:00:16.366Z,1.12
2023-04-06T05:02:45.384Z,1.14
2023-04-06T05:05:16.977Z,1.18
2023-04-06T05:07:46.494Z,1.20
2023-04-06T05:10:23.585Z,1.22
2023-04-06T05:12:58.696Z,1.28
2023-04-06T05:15:30.380Z,1.33
2023-04-06T05:18:05.647Z,1.33
2023-04-06T05:20:36.197Z,1.33
2023-04-06T05:23:04.191Z,1.37
2023-04-06T05:25:32.963Z,1.33
2023-04-06T05:28:09.030Z,1.35
2023-04-06T05:30:39.023Z,1.39
2023-04-06T05:33:06.748Z,1.47
2023-04-06T05:35:47.124Z,1.52
2023-04-06T05:38:14.886Z,1.57
2023-04-06T05:40:42.576Z,1.61
2023-04-06T05:43:14.600Z,1.63
2023-04-06T05:45:47.942Z,1.65
2023-04-06T05:48:15.722Z,1.77
2023-04-06T05:50:42.849Z,1.79
2023-04-06T05:53:13.117Z,1.83
2023-04-06T05:55:44.445Z,1.87
2023-04-06T05:58:18.109Z,1.89
2023-04-06T06:00:46.923Z,1.94
2023-04-06T06:03:16.866Z,2.01
2023-04-06T06:05:49.682Z,2.04
2023-04-06T06:08:24.467Z,2.04
2023-04-06T06:10:52.618Z,2.10
2023-04-06T06:13:24.537Z,2.10
2023-04-06T06:15:52.761Z,2.14
2023-04-06T06:18:22.099Z,2.16
2023-04-06T06:20:52.353Z,2.18
2023-04-06T06:23:19.678Z,2.16
2023-04-06T06:25:47.893Z,2.23
2023-04-06T06:28:18.434Z,2.24
2023-04-06T06:30:45.748Z,2.28
2023-04-06T06:33:17.924Z,2.33
2023-04-06T06:35:45.345Z,2.35
2023-04-06T06:38:12.770Z,2.30
2023-04-06T06:40:41.789Z,2.33
2023-04-06T06:43:09.298Z,2.32
2023-04-06T06:46:11.790Z,2.39
2023-04-06T06:48:41.200Z,2.39
2023-04-06T06:51:08.536Z,2.40
2023-04-06T06:53:36.206Z,2.35
2023-04-06T06:56:03.540Z,2.29
2023-04-06T06:58:31.696Z,2.26
2023-04-06T07:01:00.971Z,2.29
2023-04-06T07:03:32.092Z,2.25
2023-04-06T07:06:00.792Z,2.29
2023-04-06T07:08:28.617Z,2.31
2023-04-06T07:10:58.774Z,2.30
2023-04-06T07:13:28.253Z,2.35
2023-04-06T07:15:57.916Z,2.42
2023-04-06T07:18:26.080Z,2.37
2023-04-06T07:20:53.181Z,2.33
2023-04-06T07:23:20.860Z,2.35
2023-04-06T07:25:48.269Z,2.36
2023-04-06T07:28:16.440Z,2.43
2023-04-06T07:30:43.756Z,2.43
2023-04-06T07:33:12.907Z,2.48
2023-04-06T07:35:42.166Z,2.50
2023-04-06T07:38:10.934Z,2.55
2023-04-06T07:40:38.370Z,2.59
2023-04-06T07:43:06.065Z,2.60
2023-04-06T07:45:33.263Z,2.65
2023-04-06T07:48:03.197Z,2.70
2023-04-06T07:50:31.404Z,2.75
2023-04-06T07:52:59.256Z,2.78
2023-04-06T07:55:26.631Z,2.81
2023-04-06T07:57:53.945Z,2.84
2023-04-06T08:00:21.722Z,2.87
2023-04-06T08:02:49.242Z,2.87
2023-04-06T08:05:16.991Z,2.89
2023-04-06T08:07:44.689Z,2.89
2023-04-06T08:10:12.074Z,2.89
2023-04-06T08:12:39.489Z,2.90
2023-04-06T08:15:07.258Z,2.95
2023-04-06T08:17:35.042Z,2.98
2023-04-06T08:20:04.467Z,3.00
2023-04-06T08:22:32.885Z,3.08
2023-04-06T08:25:00.114Z,3.16
2023-04-06T08:27:27.578Z,3.21
2023-04-06T08:29:54.733Z,3.27
2023-04-06T08:32:22.202Z,3.28
2023-04-06T08:34:49.353Z,3.32
2023-04-06T08:37:16.745Z,3.36
2023-04-06T08:39:43.905Z,3.49
2023-04-06T08:42:21.465Z,3.56
2023-04-06T08:44:52.048Z,3.68
2023-04-06T08:47:22.384Z,3.76
2023-04-06T08:49:54.769Z,3.89
2023-04-06T08:52:22.342Z,4.07
2023-04-06T08:54:49.451Z,4.25
2023-04-06T08:57:19.526Z,4.50
2023-04-06T08:59:47.339Z,4.67
2023-04-06T09:02:20.049Z,4.73
2023-04-06T09:04:53.198Z,4.87
2023-04-06T09:07:21.783Z,4.97
2023-04-06T09:09:48.943Z,5.01
2023-04-06T09:12:27.844Z,5.09
2023-04-06T09:14:56.901Z,5.07
2023-04-06T09:17:30.873Z,5.15
2023-04-06T09:19:58.322Z,5.12
2023-04-06T09:22:26.711Z,5.26
2023-04-06T09:24:55.571Z,5.32
2023-04-06T09:27:35.764Z,5.36
2023-04-06T09:30:15.210Z,5.23
2023-04-06T09:32:54.413Z,5.31
2023-04-06T09:35:23.226Z,5.44
2023-04-06T09:37:53.171Z,5.33
2023-04-06T09:40:22.042Z,5.43
2023-04-06T09:42:58.452Z,5.43
2023-04-06T09:45:27.306Z,5.51
2023-04-06T09:47:57.318Z,5.54
2023-04-06T09:50:27.725Z,5.58
2023-04-06T09:52:59.744Z,5.54
2023-04-06T09:55:42.998Z,5.52
2023-04-06T09:58:20.045Z,5.58
2023-04-06T10:01:06.443Z,5.65
2023-04-06T10:04:14.589Z,5.78
2023-04-06T10:06:42.698Z,5.80
2023-04-06T10:09:10.530Z,5.81
2023-04-06T10:11:38.777Z,5.80
2023-04-06T10:14:07.511Z,5.80
2023-04-06T10:16:35.795Z,5.88
2023-04-06T10:19:17.775Z,5.94
2023-04-06T10:21:51.475Z,5.87
2023-04-06T10:24:19.080Z,5.96
2023-04-06T10:27:04.979Z,6.03
2023-04-06T10:29:47.608Z,6.18
2023-04-06T10:32:14.933Z,6.18
2023-04-06T10:34:42.381Z,6.23
2023-04-06T10:37:20.036Z,6.25
2023-04-06T10:39:59.172Z,6.18
2023-04-06T10:42:39.349Z,6.10
2023-04-06T10:45:19.543Z,6.22
2023-04-06T10:47:46.884Z,6.15
2023-04-06T10:50:18.212Z,6.20
2023-04-06T10:53:03.289Z,6.15
2023-04-06T10:55:31.992Z,6.10
2023-04-06T10:57:59.136Z,6.11
2023-04-06T11:00:33.467Z,6.15
2023-04-06T11:03:10.498Z,6.12
2023-04-06T11:05:38.117Z,6.12
2023-04-06T11:08:05.571Z,6.10
2023-04-06T11:10:32.905Z,5.96
2023-04-06T11:13:00.156Z,5.75
2023-04-06T11:15:38.110Z,5.87
2023-04-06T11:18:06.892Z,6.03
2023-04-06T11:20:34.426Z,6.12
2023-04-06T11:23:02.649Z,6.16
2023-04-06T11:25:33.387Z,6.14
2023-04-06T11:28:01.227Z,6.13
2023-04-06T11:30:28.938Z,6.04
2023-04-06T11:33:03.654Z,5.92
2023-04-06T11:35:33.922Z,5.79
2023-04-06T11:38:05.302Z,5.89
2023-04-06T11:40:34.156Z,5.85
2023-04-06T11:43:04.895Z,5.85
2023-04-06T11:45:43.990Z,5.85
2023-04-06T11:48:23.238Z,5.82
2023-04-06T11:51:04.644Z,5.84
2023-04-06T11:53:31.915Z,5.75
2023-04-06T11:56:00.594Z,5.71
2023-04-06T11:58:31.183Z,5.72
2023-04-06T12:01:05.759Z,5.70
2023-04-06T12:03:33.141Z,5.65
2023-04-06T12:06:00.861Z,5.61
2023-04-06T12:08:28.416Z,5.60
2023-04-06T12:10:56.079Z,5.60
2023-04-06T12:13:23.519Z,5.50
2023-04-06T12:15:51.136Z,5.41
2023-04-06T12:18:18.344Z,5.27
2023-04-06T12:20:45.932Z,5.12
2023-04-06T12:23:13.102Z,5.08
2023-04-06T12:25:42.152Z,5.12
2023-04-06T12:28:09.557Z,4.87
2023-04-06T12:30:37.037Z,4.74
2023-04-06T12:33:04.675Z,4.79
2023-04-06T12:35:35.487Z,4.81
2023-04-06T12:38:02.711Z,4.60
2023-04-06T12:40:30.926Z,4.55
2023-04-06T12:42:58.162Z,4.66
2023-04-06T12:45:25.786Z,4.76
2023-04-06T12:47:53.101Z,4.72
2023-04-06T12:50:20.506Z,4.75
2023-04-06T12:52:49.044Z,4.73
2023-04-06T12:55:16.908Z,4.71
2023-04-06T12:57:44.298Z,4.47
2023-04-06T13:00:12.644Z,4.42
2023-04-06T13:02:40.004Z,4.46
2023-04-06T13:05:08.048Z,4.43
2023-04-06T13:07:35.302Z,4.46
2023-04-06T13:10:03.267Z,4.49
2023-04-06T13:12:30.561Z,4.49
2023-04-06T13:14:58.006Z,4.42
2023-04-06T13:17:25.234Z,4.31
2023-04-06T13:19:52.690Z,4.26
2023-04-06T13:22:20.979Z,4.16
2023-04-06T13:24:48.360Z,4.09
2023-04-06T13:27:15.685Z,3.95
2023-04-06T13:29:43.252Z,4.07
2023-04-06T13:32:11.248Z,4.02
2023-04-06T13:34:38.737Z,4.06
2023-04-06T13:37:05.946Z,4.06
2023-04-06T13:39:33.556Z,4.02
2023-04-06T13:42:02.153Z,4.01
2023-04-06T13:44:30.849Z,4.00
2023-04-06T13:46:59.383Z,4.02
2023-04-06T13:49:27.587Z,3.98
2023-04-06T13:51:54.721Z,3.91
2023-04-06T13:54:22.070Z,3.91
2023-04-06T13:56:49.245Z,3.84
2023-04-06T13:59:16.729Z,3.79
2023-04-06T14:01:43.920Z,3.83
2023-04-06T14:04:11.323Z,3.88
2023-04-06T14:06:38.724Z,3.91
2023-04-06T14:09:06.336Z,3.87
2023-04-06T14:11:33.560Z,3.83
2023-04-06T14:14:01.191Z,3.84
2023-04-06T14:16:32.927Z,3.87
2023-04-06T14:19:00.296Z,3.92
2023-04-06T14:21:27.461Z,3.90
2023-04-06T14:23:55.807Z,3.88
2023-04-06T14:26:23.769Z,3.89
2023-04-06T14:28:51.502Z,3.92
2023-04-06T14:31:18.851Z,3.95
2023-04-06T14:33:47.253Z,3.97
2023-04-06T14:36:14.668Z,3.97
2023-04-06T14:38:42.143Z,3.98
2023-04-06T14:41:16.324Z,3.95
2023-04-06T14:43:44.008Z,3.95
2023-04-06T14:46:11.331Z,3.96
2023-04-06T14:48:38.848Z,3.92
2023-04-06T14:51:06.428Z,3.89
2023-04-06T14:53:34.426Z,3.91
2023-04-06T14:56:04.410Z,3.86
2023-04-06T14:58:32.323Z,3.83
2023-04-06T15:01:02.353Z,3.85
2023-04-06T15:03:31.122Z,3.83
2023-04-06T15:05:58.829Z,3.85
2023-04-06T15:08:26.449Z,3.85
2023-04-06T15:10:55.481Z,3.83
2023-04-06T15:13:22.932Z,3.77
2023-04-06T15:15:52.405Z,3.76
2023-04-06T15:18:20.938Z,3.73
2023-04-06T15:20:48.625Z,3.66
2023-04-06T15:23:16.062Z,3.65
2023-04-06T15:25:43.074Z,3.65
2023-04-06T15:28:11.004Z,3.61
2023-04-06T15:30:38.896Z,3.58
2023-04-06T15:33:09.204Z,3.56
2023-04-06T15:35:43.765Z,3.51
2023-04-06T15:38:11.570Z,3.51
2023-04-06T15:40:49.156Z,3.54
2023-04-06T15:43:16.988Z,3.51
2023-04-06T15:45:44.145Z,3.49
2023-04-06T15:48:11.947Z,3.50
2023-04-06T15:50:39.074Z,3.38
2023-04-06T15:53:07.258Z,3.40
2023-04-06T15:55:34.708Z,3.40
2023-04-06T15:58:07.048Z,3.36
2023-04-06T16:00:34.330Z,3.35
2023-04-06T16:03:02.398Z,3.35
2023-04-06T16:05:34.880Z,3.35
2023-04-06T16:08:08.242Z,3.36
2023-04-06T16:10:35.430Z,3.40
2023-04-06T16:13:04.000Z,3.36
2023-04-06T16:15:31.061Z,3.33
2023-04-06T16:17:58.543Z,3.36
2023-04-06T16:20:25.827Z,3.36
2023-04-06T16:22:53.494Z,3.30
2023-04-06T16:25:20.551Z,3.30
2023-04-06T16:27:48.195Z,3.31
2023-04-06T16:30:15.588Z,3.36
2023-04-06T16:32:44.488Z,3.39
2023-04-06T16:35:11.637Z,3.34
2023-04-06T16:37:39.025Z,3.29
2023-04-06T16:40:07.397Z,3.28
2023-04-06T16:42:34.896Z,3.22
2023-04-06T16:45:04.486Z,3.24
2023-04-06T16:47:32.117Z,3.19
2023-04-06T16:50:05.471Z,3.21
2023-04-06T16:52:34.833Z,3.22
2023-04-06T16:55:02.208Z,3.15
2023-04-06T16:57:29.831Z,3.13
2023-04-06T16:59:57.280Z,3.08
2023-04-06T17:02:25.393Z,3.02
2023-04-06T17:04:53.033Z,2.96
2023-04-06T17:07:25.489Z,2.94
2023-04-06T17:09:52.798Z,2.89
2023-04-06T17:12:20.301Z,2.87
2023-04-06T17:14:47.430Z,2.87
2023-04-06T17:17:14.973Z,2.81
2023-04-06T17:19:42.092Z,2.75
2023-04-06T17:22:09.415Z,2.79
2023-04-06T17:24:36.501Z,2.76
2023-04-06T17:27:04.149Z,2.73
2023-04-06T17:29:31.280Z,2.74
2023-04-06T17:31:58.795Z,2.75
2023-04-06T17:34:26.172Z,2.77
2023-04-06T17:36:53.520Z,2.78
2023-04-06T17:39:20.975Z,2.81
2023-04-06T17:41:48.460Z,2.75
2023-04-06T17:44:15.717Z,2.69
2023-04-06T17:46:43.413Z,2.71
2023-04-06T17:49:10.644Z,2.69
2023-04-06T17:51:38.234Z,2.69
2023-04-06T17:54:05.476Z,2.70
2023-04-06T17:56:32.795Z,2.70
2023-04-06T17:58:59.960Z,2.71
2023-04-06T18:01:28.522Z,2.70
2023-04-06T18:03:56.202Z,2.70
2023-04-06T18:06:25.660Z,2.72
2023-04-06T18:08:54.530Z,2.69
2023-04-06T18:11:22.068Z,2.68
2023-04-06T18:13:49.684Z,2.65
2023-04-06T18:16:20.261Z,2.63
2023-04-06T18:18:47.896Z,2.64
2023-04-06T18:21:15.591Z,2.62
2023-04-06T18:23:43.027Z,2.58
2023-04-06T18:26:19.896Z,2.53
2023-04-06T18:28:47.833Z,2.52
2023-04-06T18:31:15.723Z,2.52
2023-04-06T18:33:43.863Z,2.51
2023-04-06T18:36:11.595Z,2.50
2023-04-06T18:38:44.214Z,2.50
2023-04-06T18:41:11.829Z,2.49
2023-04-06T18:43:40.163Z,2.49
2023-04-06T18:46:13.418Z,2.50
2023-04-06T18:48:41.931Z,2.49
2023-04-06T18:51:10.424Z,2.47
2023-04-06T18:53:39.779Z,2.48
2023-04-06T18:56:19.848Z,2.48
2023-04-06T18:58:48.506Z,2.47
2023-04-06T19:01:29.105Z,2.48
2023-04-06T19:03:59.875Z,2.47
2023-04-06T19:06:28.790Z,2.47
2023-04-06T19:08:56.694Z,2.48
2023-04-06T19:11:25.426Z,2.42
2023-04-06T19:13:57.050Z,2.41
2023-04-06T19:16:27.714Z,2.39
2023-04-06T19:18:55.891Z,2.42
2023-04-06T19:21:26.267Z,2.41
2023-04-06T19:23:55.673Z,2.43
2023-04-06T19:26:25.276Z,2.41
2023-04-06T19:28:52.315Z,2.43
2023-04-06T19:31:20.293Z,2.44
2023-04-06T19:33:48.473Z,2.43
2023-04-06T19:36:16.390Z,2.39
2023-04-06T19:38:43.717Z,2.35
2023-04-06T19:41:11.482Z,2.36
2023-04-06T19:43:38.522Z,2.35
2023-04-06T19:46:06.001Z,2.34
2023-04-06T19:48:33.873Z,2.35
2023-04-06T19:51:02.317Z,2.39
2023-04-06T19:53:29.451Z,2.39
2023-04-06T19:55:56.730Z,2.38
2023-04-06T19:58:23.823Z,2.39
2023-04-06T20:00:51.365Z,2.41
2023-04-06T20:03:18.550Z,2.38
2023-04-06T20:05:46.766Z,2.41
2023-04-06T20:08:14.214Z,2.40
2023-04-06T20:10:42.547Z,2.41
2023-04-06T20:13:09.756Z,2.45
2023-04-06T20:15:37.275Z,2.42
2023-04-06T20:18:04.443Z,2.43
2023-04-06T20:20:31.918Z,2.42
2023-04-06T20:22:59.301Z,2.42
2023-04-06T20:25:27.132Z,2.41
2023-04-06T20:27:54.324Z,2.41
2023-04-06T20:30:22.368Z,2.40
2023-04-06T20:32:49.529Z,2.38
2023-04-06T20:35:17.047Z,2.39
2023-04-06T20:37:44.152Z,2.39
2023-04-06T20:40:12.721Z,2.40
2023-04-06T20:42:41.958Z,2.39
2023-04-06T20:45:10.005Z,2.38
2023-04-06T20:47:37.366Z,2.35
2023-04-06T20:50:06.989Z,2.34
2023-04-06T20:52:34.735Z,2.35
2023-04-06T20:55:04.657Z,2.35
2023-04-06T20:57:32.059Z,2.35
2023-04-06T20:59:59.446Z,2.34
2023-04-06T21:02:26.608Z,2.34
2023-04-06T21:04:54.050Z,2.33
2023-04-06T21:07:21.315Z,2.36
2023-04-06T21:09:48.630Z,2.37
2023-04-06T21:12:15.911Z,2.36
2023-04-06T21:14:43.338Z,2.36
2023-04-06T21:17:11.399Z,2.35
2023-04-06T21:19:38.752Z,2.36
2023-04-06T21:22:06.133Z,2.37
2023-04-06T21:24:33.440Z,2.39
2023-04-06T21:27:00.484Z,2.39
2023-04-06T21:29:32.721Z,2.37
2023-04-06T21:31:59.815Z,2.35
2023-04-06T21:34:27.151Z,2.35
2023-04-06T21:36:54.287Z,2.36
2023-04-06T21:39:23.936Z,2.33
2023-04-06T21:41:51.630Z,2.32
2023-04-06T21:44:19.330Z,2.31
2023-04-06T21:46:46.465Z,2.32
2023-04-06T21:49:13.807Z,2.31
2023-04-06T21:51:41.670Z,2.28
2023-04-06T21:54:09.056Z,2.29
2023-04-06T21:56:36.105Z,2.30
2023-04-06T21:59:03.511Z,2.28
2023-04-06T22:01:30.568Z,2.28
2023-04-06T22:03:58.043Z,2.29
2023-04-06T22:06:25.816Z,2.29
2023-04-06T22:08:53.251Z,2.29
2023-04-06T22:11:21.087Z,2.30
2023-04-06T22:13:48.461Z,2.32
2023-04-06T22:16:15.640Z,2.36
2023-04-06T22:18:42.989Z,2.35
2023-04-06T22:21:10.323Z,2.34
2023-04-06T22:23:42.099Z,2.35
2023-04-06T22:26:11.721Z,2.33
2023-04-06T22:28:39.169Z,2.32
2023-04-06T22:31:06.311Z,2.31
2023-04-06T22:33:33.867Z,2.28
2023-04-06T22:36:01.038Z,2.26
2023-04-06T22:38:28.376Z,2.23
2023-04-06T22:40:55.586Z,2.23
2023-04-06T22:43:22.994Z,2.23
2023-04-06T22:45:50.246Z,2.22
2023-04-06T22:48:17.705Z,2.20
2023-04-06T22:50:44.792Z,2.20
2023-04-06T22:53:12.104Z,2.20
2023-04-06T22:55:42.400Z,2.22
2023-04-06T22:58:09.725Z,2.22
2023-04-06T23:00:36.717Z,2.25
2023-04-06T23:03:04.268Z,2.25
2023-04-06T23:05:32.593Z,2.24
2023-04-06T23:07:59.924Z,2.20
2023-04-06T23:10:27.063Z,2.19
2023-04-06T23:12:54.394Z,2.15
2023-04-06T23:15:21.403Z,2.15
2023-04-06T23:17:48.793Z,2.15
2023-04-06T23:20:16.159Z,2.19
2023-04-06T23:22:43.455Z,2.21
2023-04-06T23:25:10.887Z,2.17
2023-04-06T23:27:38.325Z,2.15
2023-04-06T23:30:06.637Z,2.16
2023-04-06T23:32:34.204Z,2.15
2023-04-06T23:35:03.437Z,2.18
2023-04-06T23:37:30.990Z,2.20
2023-04-06T23:39:58.175Z,2.14
2023-04-06T23:42:28.614Z,2.15
2023-04-06T23:44:56.454Z,2.13
2023-04-06T23:47:24.178Z,2.11
2023-04-06T23:49:51.434Z,2.11
2023-04-06T23:52:18.822Z,2.11
2023-04-06T23:54:46.099Z,2.10
2023-04-06T23:57:13.402Z,2.09
2023-04-06T23:59:40.673Z,2.10
